MWG3046 WBKL-WBKK
Flight info
| Callsign | MWG3046 |
|---|---|
| Flight time | 0h 37m |
| Altitude | 12000 |
| Route | VLB1W VLB G460 SUKUS SUKUS1A |
| Aircraft | AT76/M-SDFGIRY/S |
Departure
| Time | 2026-05-06 06:42 |
|---|---|
| Airport | Labuan Airport (WBKL) |
Arrival
| Time | 2026-05-06 07:19 |
|---|---|
| Airport | Kota Kinabalu International Airport (WBKK) |
| Time | Latitude | Longitude | Altitude | Speed | Heading |
|---|---|---|---|---|---|
| 2026-05-06 06:12 | 5.29493 | 115.25007 | 144 ft | 0 kts | 237° |
| 2026-05-06 06:30 | 5.29522 | 115.25051 | 144 ft | 0 kts | 237° |
| 2026-05-06 06:30 | 5.29517 | 115.25098 | 143 ft | 0 kts | 316° |
| 2026-05-06 06:35 | 5.29513 | 115.25102 | 143 ft | 0 kts | 317° |
| 2026-05-06 06:36 | 5.29545 | 115.25079 | 143 ft | 10 kts | 329° |
| 2026-05-06 06:36 | 5.29622 | 115.25070 | 143 ft | 7 kts | 23° |
| 2026-05-06 06:36 | 5.29670 | 115.25145 | 141 ft | 1 kts | 62° |
| 2026-05-06 06:37 | 5.29487 | 115.25019 | 144 ft | 0 kts | 232° |
| 2026-05-06 06:38 | 5.29496 | 115.25003 | 144 ft | 0 kts | 232° |
| 2026-05-06 06:38 | 5.29677 | 115.25154 | 141 ft | 0 kts | 59° |
| 2026-05-06 06:38 | 5.29688 | 115.25173 | 139 ft | 17 kts | 58° |
| 2026-05-06 06:38 | 5.29699 | 115.25280 | 137 ft | 16 kts | 134° |
| 2026-05-06 06:39 | 5.29510 | 115.25396 | 138 ft | 33 kts | 143° |
| 2026-05-06 06:39 | 5.29379 | 115.25495 | 138 ft | 22 kts | 142° |
| 2026-05-06 06:39 | 5.29257 | 115.25566 | 139 ft | 19 kts | 180° |
| 2026-05-06 06:39 | 5.29204 | 115.25580 | 138 ft | 4 kts | 67° |
| 2026-05-06 06:40 | 5.29233 | 115.25589 | 138 ft | 5 kts | 345° |
| 2026-05-06 06:40 | 5.29249 | 115.25580 | 138 ft | 0 kts | 324° |
| 2026-05-06 06:41 | 5.29333 | 115.25522 | 139 ft | 44 kts | 326° |
| 2026-05-06 06:41 | 5.29770 | 115.25233 | 137 ft | 104 kts | 327° |
| 2026-05-06 06:41 | 5.30442 | 115.24730 | 392 ft | 124 kts | 323° |
| 2026-05-06 06:42 | 5.31115 | 115.24213 | 932 ft | 125 kts | 320° |
| 2026-05-06 06:42 | 5.31826 | 115.23680 | 1427 ft | 128 kts | 321° |
| 2026-05-06 06:42 | 5.32616 | 115.23094 | 1475 ft | 160 kts | 321° |
| 2026-05-06 06:42 | 5.33550 | 115.22375 | 1661 ft | 175 kts | 321° |
| 2026-05-06 06:43 | 5.34484 | 115.21596 | 2042 ft | 175 kts | 308° |
| 2026-05-06 06:43 | 5.35268 | 115.20664 | 2258 ft | 179 kts | 328° |
| 2026-05-06 06:43 | 5.36483 | 115.20488 | 2577 ft | 183 kts | 16° |
| 2026-05-06 06:43 | 5.37528 | 115.21201 | 2897 ft | 184 kts | 43° |
| 2026-05-06 06:44 | 5.38470 | 115.22079 | 3231 ft | 185 kts | 44° |
| 2026-05-06 06:44 | 5.39378 | 115.22990 | 3533 ft | 184 kts | 53° |
| 2026-05-06 06:44 | 5.39720 | 115.24182 | 3801 ft | 184 kts | 91° |
| 2026-05-06 06:44 | 5.39713 | 115.25469 | 4135 ft | 185 kts | 90° |
| 2026-05-06 06:45 | 5.39766 | 115.26757 | 4485 ft | 185 kts | 86° |
| 2026-05-06 06:45 | 5.39868 | 115.28042 | 4788 ft | 185 kts | 85° |
| 2026-05-06 06:45 | 5.40043 | 115.29325 | 5137 ft | 186 kts | 80° |
| 2026-05-06 06:45 | 5.40322 | 115.30590 | 5465 ft | 186 kts | 76° |
| 2026-05-06 06:46 | 5.40703 | 115.31834 | 5809 ft | 187 kts | 71° |
| 2026-05-06 06:46 | 5.41168 | 115.33050 | 6130 ft | 187 kts | 68° |
| 2026-05-06 06:46 | 5.41669 | 115.34234 | 6427 ft | 187 kts | 67° |
| 2026-05-06 06:46 | 5.42188 | 115.35435 | 6718 ft | 188 kts | 67° |
| 2026-05-06 06:47 | 5.42719 | 115.36631 | 7008 ft | 188 kts | 67° |
| 2026-05-06 06:47 | 5.43251 | 115.37833 | 7304 ft | 189 kts | 68° |
| 2026-05-06 06:47 | 5.43770 | 115.39047 | 7601 ft | 189 kts | 68° |
| 2026-05-06 06:47 | 5.44287 | 115.40268 | 7880 ft | 191 kts | 68° |
| 2026-05-06 06:48 | 5.44806 | 115.41495 | 8165 ft | 191 kts | 68° |
| 2026-05-06 06:48 | 5.45323 | 115.42723 | 8443 ft | 191 kts | 68° |
| 2026-05-06 06:48 | 5.45837 | 115.43940 | 8721 ft | 192 kts | 68° |
| 2026-05-06 06:48 | 5.46360 | 115.45181 | 9001 ft | 193 kts | 68° |
| 2026-05-06 06:49 | 5.46886 | 115.46424 | 9273 ft | 194 kts | 68° |
| 2026-05-06 06:49 | 5.47415 | 115.47674 | 9558 ft | 195 kts | 68° |
| 2026-05-06 06:49 | 5.47944 | 115.48929 | 9827 ft | 195 kts | 68° |
| 2026-05-06 06:49 | 5.48478 | 115.50186 | 10063 ft | 196 kts | 68° |
| 2026-05-06 06:50 | 5.49148 | 115.51372 | 10284 ft | 197 kts | 49° |
| 2026-05-06 06:50 | 5.50132 | 115.52344 | 10496 ft | 200 kts | 44° |
| 2026-05-06 06:50 | 5.51158 | 115.53290 | 10730 ft | 201 kts | 44° |
| 2026-05-06 06:50 | 5.52188 | 115.54240 | 10963 ft | 201 kts | 45° |
| 2026-05-06 06:51 | 5.53192 | 115.55201 | 11168 ft | 202 kts | 46° |
| 2026-05-06 06:51 | 5.54189 | 115.56198 | 11394 ft | 203 kts | 46° |
| 2026-05-06 06:51 | 5.55190 | 115.57198 | 11618 ft | 203 kts | 46° |
| 2026-05-06 06:51 | 5.56197 | 115.58205 | 11805 ft | 205 kts | 46° |
| 2026-05-06 06:52 | 5.57224 | 115.59231 | 11906 ft | 212 kts | 46° |
| 2026-05-06 06:52 | 5.58289 | 115.60293 | 11948 ft | 220 kts | 46° |
| 2026-05-06 06:52 | 5.59387 | 115.61394 | 11967 ft | 226 kts | 46° |
| 2026-05-06 06:52 | 5.60517 | 115.62526 | 11985 ft | 232 kts | 46° |
| 2026-05-06 06:53 | 5.61657 | 115.63662 | 11983 ft | 236 kts | 46° |
| 2026-05-06 06:53 | 5.62831 | 115.64839 | 11980 ft | 240 kts | 46° |
| 2026-05-06 06:53 | 5.64022 | 115.66027 | 11983 ft | 243 kts | 46° |
| 2026-05-06 06:53 | 5.65223 | 115.67228 | 11981 ft | 245 kts | 46° |
| 2026-05-06 06:54 | 5.66432 | 115.68436 | 11983 ft | 246 kts | 46° |
| 2026-05-06 06:54 | 5.67646 | 115.69652 | 11984 ft | 247 kts | 46° |
| 2026-05-06 06:54 | 5.68864 | 115.70874 | 11980 ft | 248 kts | 46° |
| 2026-05-06 06:54 | 5.70090 | 115.72096 | 11960 ft | 249 kts | 46° |
| 2026-05-06 06:55 | 5.71333 | 115.73335 | 11862 ft | 253 kts | 46° |
| 2026-05-06 06:55 | 5.72574 | 115.74571 | 11822 ft | 255 kts | 46° |
| 2026-05-06 06:55 | 5.73946 | 115.75697 | 11732 ft | 258 kts | 34° |
| 2026-05-06 06:55 | 5.75505 | 115.76617 | 11614 ft | 261 kts | 30° |
| 2026-05-06 06:56 | 5.77103 | 115.77509 | 11482 ft | 264 kts | 31° |
| 2026-05-06 06:56 | 5.78703 | 115.78435 | 11370 ft | 266 kts | 32° |
| 2026-05-06 06:56 | 5.80286 | 115.79406 | 11248 ft | 268 kts | 33° |
| 2026-05-06 06:56 | 5.81880 | 115.80405 | 11042 ft | 272 kts | 33° |
| 2026-05-06 06:57 | 5.83504 | 115.81408 | 10821 ft | 275 kts | 33° |
| 2026-05-06 06:57 | 5.85122 | 115.82409 | 10623 ft | 278 kts | 33° |
| 2026-05-06 06:57 | 5.86771 | 115.83430 | 10410 ft | 279 kts | 33° |
| 2026-05-06 06:57 | 5.88431 | 115.84459 | 10200 ft | 280 kts | 33° |
| 2026-05-06 06:58 | 5.90093 | 115.85486 | 10004 ft | 281 kts | 33° |
| 2026-05-06 06:58 | 5.91757 | 115.86515 | 9800 ft | 281 kts | 33° |
| 2026-05-06 06:58 | 5.93413 | 115.87537 | 9642 ft | 278 kts | 33° |
| 2026-05-06 06:58 | 5.95056 | 115.88549 | 9458 ft | 277 kts | 33° |
| 2026-05-06 06:59 | 5.96694 | 115.89560 | 9293 ft | 276 kts | 33° |
| 2026-05-06 06:59 | 5.98327 | 115.90572 | 9110 ft | 276 kts | 33° |
| 2026-05-06 06:59 | 5.99936 | 115.91567 | 8945 ft | 275 kts | 33° |
| 2026-05-06 06:59 | 6.01563 | 115.92578 | 8724 ft | 275 kts | 33° |
| 2026-05-06 07:00 | 6.03173 | 115.93588 | 8472 ft | 271 kts | 33° |
| 2026-05-06 07:00 | 6.04765 | 115.94587 | 8229 ft | 268 kts | 33° |
| 2026-05-06 07:00 | 6.06343 | 115.95577 | 7995 ft | 266 kts | 33° |
| 2026-05-06 07:00 | 6.07903 | 115.96552 | 7806 ft | 263 kts | 33° |
| 2026-05-06 07:01 | 6.09372 | 115.97460 | 7629 ft | 260 kts | 33° |
| 2026-05-06 07:01 | 6.10916 | 115.98408 | 7441 ft | 259 kts | 33° |
| 2026-05-06 07:01 | 6.12449 | 115.99343 | 7253 ft | 258 kts | 33° |
| 2026-05-06 07:01 | 6.13980 | 116.00277 | 7063 ft | 257 kts | 33° |
| 2026-05-06 07:02 | 6.15489 | 116.01225 | 6875 ft | 252 kts | 38° |
| 2026-05-06 07:02 | 6.16499 | 116.02578 | 6693 ft | 247 kts | 71° |
| 2026-05-06 07:02 | 6.17103 | 116.04164 | 6521 ft | 244 kts | 59° |
| 2026-05-06 07:02 | 6.18397 | 116.05259 | 6333 ft | 250 kts | 24° |
| 2026-05-06 07:03 | 6.20110 | 116.05553 | 6147 ft | 250 kts | 5° |
| 2026-05-06 07:03 | 6.21852 | 116.05627 | 5955 ft | 252 kts | 3° |
| 2026-05-06 07:03 | 6.23608 | 116.05660 | 5768 ft | 252 kts | 1° |
| 2026-05-06 07:03 | 6.25282 | 116.05190 | 5574 ft | 255 kts | 328° |
| 2026-05-06 07:04 | 6.26438 | 116.03891 | 5396 ft | 257 kts | 296° |
| 2026-05-06 07:04 | 6.26743 | 116.02141 | 5197 ft | 257 kts | 263° |
| 2026-05-06 07:04 | 6.26078 | 116.00520 | 5106 ft | 251 kts | 230° |
| 2026-05-06 07:04 | 6.24797 | 115.99385 | 5056 ft | 242 kts | 217° |
| 2026-05-06 07:05 | 6.23458 | 115.98385 | 5032 ft | 238 kts | 215° |
| 2026-05-06 07:05 | 6.22121 | 115.97428 | 5023 ft | 234 kts | 214° |
| 2026-05-06 07:05 | 6.20789 | 115.96496 | 5014 ft | 232 kts | 213° |
| 2026-05-06 07:05 | 6.19464 | 115.95580 | 5005 ft | 230 kts | 213° |
| 2026-05-06 07:06 | 6.18138 | 115.94690 | 5003 ft | 228 kts | 212° |
| 2026-05-06 07:06 | 6.16765 | 115.93956 | 5005 ft | 225 kts | 204° |
| 2026-05-06 07:06 | 6.15333 | 115.93316 | 5003 ft | 225 kts | 202° |
| 2026-05-06 07:06 | 6.13895 | 115.92703 | 4997 ft | 225 kts | 201° |
| 2026-05-06 07:07 | 6.12452 | 115.92099 | 4999 ft | 224 kts | 201° |
| 2026-05-06 07:07 | 6.11007 | 115.91502 | 4945 ft | 226 kts | 201° |
| 2026-05-06 07:07 | 6.09522 | 115.90892 | 4748 ft | 234 kts | 201° |
| 2026-05-06 07:07 | 6.07967 | 115.90379 | 4559 ft | 237 kts | 191° |
| 2026-05-06 07:08 | 6.06321 | 115.90190 | 4372 ft | 240 kts | 182° |
| 2026-05-06 07:08 | 6.04642 | 115.90135 | 4159 ft | 243 kts | 180° |
| 2026-05-06 07:08 | 6.02942 | 115.90117 | 3974 ft | 245 kts | 180° |
| 2026-05-06 07:08 | 6.01251 | 115.90115 | 3779 ft | 247 kts | 179° |
| 2026-05-06 07:09 | 5.99524 | 115.90122 | 3588 ft | 249 kts | 179° |
| 2026-05-06 07:09 | 5.97781 | 115.90135 | 3391 ft | 254 kts | 179° |
| 2026-05-06 07:09 | 5.95992 | 115.90154 | 3206 ft | 259 kts | 179° |
| 2026-05-06 07:09 | 5.94180 | 115.90173 | 3083 ft | 260 kts | 179° |
| 2026-05-06 07:10 | 5.92379 | 115.90194 | 3033 ft | 257 kts | 179° |
| 2026-05-06 07:10 | 5.90601 | 115.90216 | 3008 ft | 254 kts | 179° |
| 2026-05-06 07:10 | 5.88847 | 115.90208 | 2994 ft | 249 kts | 185° |
| 2026-05-06 07:10 | 5.87168 | 115.89816 | 2987 ft | 248 kts | 197° |
| 2026-05-06 07:11 | 5.85525 | 115.89296 | 2998 ft | 248 kts | 198° |
| 2026-05-06 07:11 | 5.83910 | 115.88756 | 2991 ft | 248 kts | 199° |
| 2026-05-06 07:11 | 5.82314 | 115.88105 | 2977 ft | 248 kts | 205° |
| 2026-05-06 07:11 | 5.80756 | 115.87355 | 2979 ft | 248 kts | 206° |
| 2026-05-06 07:12 | 5.79126 | 115.86926 | 2975 ft | 240 kts | 178° |
| 2026-05-06 07:12 | 5.77626 | 115.87465 | 2972 ft | 225 kts | 141° |
| 2026-05-06 07:12 | 5.76818 | 115.88704 | 2976 ft | 208 kts | 102° |
| 2026-05-06 07:12 | 5.76977 | 115.90070 | 2981 ft | 195 kts | 60° |
| 2026-05-06 07:13 | 5.77787 | 115.91088 | 2983 ft | 181 kts | 49° |
| 2026-05-06 07:13 | 5.78458 | 115.92075 | 2983 ft | 168 kts | 64° |
| 2026-05-06 07:13 | 5.78914 | 115.93120 | 2976 ft | 160 kts | 66° |
| 2026-05-06 07:13 | 5.79345 | 115.94121 | 2975 ft | 153 kts | 65° |
| 2026-05-06 07:14 | 5.79781 | 115.95099 | 2836 ft | 157 kts | 64° |
| 2026-05-06 07:14 | 5.80254 | 115.96101 | 2655 ft | 161 kts | 62° |
| 2026-05-06 07:14 | 5.80756 | 115.97093 | 2475 ft | 157 kts | 61° |
| 2026-05-06 07:14 | 5.81278 | 115.98048 | 2306 ft | 155 kts | 59° |
| 2026-05-06 07:15 | 5.81829 | 115.98969 | 2129 ft | 151 kts | 52° |
| 2026-05-06 07:15 | 5.82552 | 115.99709 | 1957 ft | 147 kts | 38° |
| 2026-05-06 07:15 | 5.83353 | 116.00317 | 1797 ft | 143 kts | 32° |
| 2026-05-06 07:15 | 5.84133 | 116.00811 | 1631 ft | 123 kts | 29° |
| 2026-05-06 07:16 | 5.84855 | 116.01222 | 1508 ft | 121 kts | 27° |
| 2026-05-06 07:16 | 5.85609 | 116.01619 | 1352 ft | 121 kts | 22° |
| 2026-05-06 07:16 | 5.86342 | 116.01975 | 1201 ft | 114 kts | 21° |
| 2026-05-06 07:16 | 5.87044 | 116.02291 | 1063 ft | 108 kts | 20° |
| 2026-05-06 07:17 | 5.87716 | 116.02577 | 924 ft | 105 kts | 18° |
| 2026-05-06 07:17 | 5.88405 | 116.02860 | 778 ft | 112 kts | 18° |
| 2026-05-06 07:17 | 5.89122 | 116.03153 | 619 ft | 112 kts | 17° |
| 2026-05-06 07:17 | 5.89832 | 116.03452 | 465 ft | 113 kts | 21° |
| 2026-05-06 07:18 | 5.90552 | 116.03779 | 305 ft | 112 kts | 16° |
| 2026-05-06 07:18 | 5.91264 | 116.04063 | 217 ft | 109 kts | 18° |
| 2026-05-06 07:18 | 5.91973 | 116.04371 | 92 ft | 112 kts | 18° |
| 2026-05-06 07:18 | 5.92679 | 116.04659 | 33 ft | 104 kts | 20° |
| 2026-05-06 07:19 | 5.93066 | 116.04820 | 26 ft | 18 kts | 33° |
| 2026-05-06 07:19 | 5.93285 | 116.04930 | 25 ft | 46 kts | 25° |
| 2026-05-06 07:19 | 5.93510 | 116.05023 | 25 ft | 11 kts | 21° |
| 2026-05-06 07:19 | 5.93519 | 116.05028 | 28 ft | 0 kts | 26° |
| 2026-05-06 07:20 | 5.93561 | 116.05051 | 28 ft | 10 kts | 29° |
| 2026-05-06 07:20 | 5.93575 | 116.05063 | 27 ft | 1 kts | 78° |
| 2026-05-06 07:20 | 5.93536 | 116.05120 | 25 ft | 9 kts | 158° |
| 2026-05-06 07:20 | 5.93454 | 116.05139 | 25 ft | 14 kts | 167° |
| 2026-05-06 07:21 | 5.93346 | 116.05147 | 25 ft | 17 kts | 200° |
| 2026-05-06 07:21 | 5.93238 | 116.05099 | 25 ft | 17 kts | 203° |
| 2026-05-06 07:21 | 5.93122 | 116.05051 | 25 ft | 18 kts | 202° |
| 2026-05-06 07:21 | 5.93005 | 116.05001 | 28 ft | 18 kts | 204° |
| 2026-05-06 07:22 | 5.92905 | 116.04962 | 25 ft | 12 kts | 193° |
| 2026-05-06 07:22 | 5.92844 | 116.05022 | 26 ft | 15 kts | 112° |
| 2026-05-06 07:22 | 5.92821 | 116.05079 | 29 ft | 0 kts | 112° |
| 2026-05-06 07:22 | 5.92809 | 116.05083 | 27 ft | 5 kts | 176° |
| 2026-05-06 07:23 | 5.92751 | 116.05084 | 29 ft | 9 kts | 168° |
| 2026-05-06 07:23 | 5.92722 | 116.05090 | 28 ft | 0 kts | 170° |